sensor_id;sensor_type;location;lat;lon;timestamp;P1;durP1;ratioP1;P2;durP2;ratioP2
3567;SDS011;1798;48.486;9.232;2023-07-09T00:00:06;26.60;;;16.10;;
3567;SDS011;1798;48.486;9.232;2023-07-09T00:02:42;35.97;;;17.20;;
3567;SDS011;1798;48.486;9.232;2023-07-09T00:05:11;28.50;;;16.87;;
3567;SDS011;1798;48.486;9.232;2023-07-09T00:07:39;31.53;;;16.40;;
3567;SDS011;1798;48.486;9.232;2023-07-09T00:10:12;24.60;;;14.10;;
3567;SDS011;1798;48.486;9.232;2023-07-09T00:12:41;26.73;;;15.23;;
3567;SDS011;1798;48.486;9.232;2023-07-09T00:15:09;29.67;;;14.90;;
3567;SDS011;1798;48.486;9.232;2023-07-09T00:17:38;39.70;;;21.57;;
3567;SDS011;1798;48.486;9.232;2023-07-09T00:20:07;33.60;;;21.37;;
3567;SDS011;1798;48.486;9.232;2023-07-09T00:22:39;40.33;;;21.87;;
3567;SDS011;1798;48.486;9.232;2023-07-09T00:25:07;39.10;;;22.13;;
3567;SDS011;1798;48.486;9.232;2023-07-09T00:27:39;43.20;;;26.40;;
3567;SDS011;1798;48.486;9.232;2023-07-09T00:30:10;60.77;;;26.63;;
3567;SDS011;1798;48.486;9.232;2023-07-09T00:32:42;36.50;;;21.93;;
3567;SDS011;1798;48.486;9.232;2023-07-09T00:35:09;29.37;;;16.40;;
3567;SDS011;1798;48.486;9.232;2023-07-09T00:37:40;29.60;;;14.80;;
3567;SDS011;1798;48.486;9.232;2023-07-09T00:40:09;22.67;;;12.10;;
3567;SDS011;1798;48.486;9.232;2023-07-09T00:42:42;20.23;;;9.80;;
3567;SDS011;1798;48.486;9.232;2023-07-09T00:45:15;26.73;;;11.10;;
3567;SDS011;1798;48.486;9.232;2023-07-09T00:47:46;19.13;;;12.03;;
3567;SDS011;1798;48.486;9.232;2023-07-09T00:50:15;29.13;;;13.87;;
3567;SDS011;1798;48.486;9.232;2023-07-09T00:53:00;19.03;;;10.57;;
3567;SDS011;1798;48.486;9.232;2023-07-09T00:55:32;16.80;;;10.57;;
3567;SDS011;1798;48.486;9.232;2023-07-09T00:58:03;28.70;;;9.10;;
3567;SDS011;1798;48.486;9.232;2023-07-09T01:00:33;17.87;;;8.97;;
3567;SDS011;1798;48.486;9.232;2023-07-09T01:03:08;26.73;;;11.50;;
3567;SDS011;1798;48.486;9.232;2023-07-09T01:05:36;21.37;;;9.43;;
3567;SDS011;1798;48.486;9.232;2023-07-09T01:08:04;26.60;;;8.33;;
3567;SDS011;1798;48.486;9.232;2023-07-09T01:10:34;13.40;;;7.60;;
3567;SDS011;1798;48.486;9.232;2023-07-09T01:13:02;14.90;;;8.27;;
3567;SDS011;1798;48.486;9.232;2023-07-09T01:15:29;15.00;;;8.50;;
3567;SDS011;1798;48.486;9.232;2023-07-09T01:17:55;32.80;;;8.67;;
3567;SDS011;1798;48.486;9.232;2023-07-09T01:20:23;19.30;;;8.83;;
3567;SDS011;1798;48.486;9.232;2023-07-09T01:22:52;18.80;;;7.90;;
3567;SDS011;1798;48.486;9.232;2023-07-09T01:25:22;15.60;;;8.20;;
3567;SDS011;1798;48.486;9.232;2023-07-09T01:27:49;14.90;;;7.07;;
3567;SDS011;1798;48.486;9.232;2023-07-09T01:30:17;19.23;;;8.30;;
3567;SDS011;1798;48.486;9.232;2023-07-09T01:32:47;30.33;;;7.80;;
3567;SDS011;1798;48.486;9.232;2023-07-09T01:35:15;18.23;;;8.93;;
3567;SDS011;1798;48.486;9.232;2023-07-09T01:37:43;16.60;;;8.93;;
3567;SDS011;1798;48.486;9.232;2023-07-09T01:40:13;15.43;;;8.33;;
3567;SDS011;1798;48.486;9.232;2023-07-09T01:42:41;17.60;;;8.37;;
3567;SDS011;1798;48.486;9.232;2023-07-09T01:45:08;14.27;;;7.67;;
3567;SDS011;1798;48.486;9.232;2023-07-09T01:47:36;13.40;;;7.37;;
3567;SDS011;1798;48.486;9.232;2023-07-09T01:50:03;19.53;;;8.77;;
3567;SDS011;1798;48.486;9.232;2023-07-09T01:52:31;18.33;;;8.13;;
3567;SDS011;1798;48.486;9.232;2023-07-09T01:54:58;20.63;;;8.80;;
3567;SDS011;1798;48.486;9.232;2023-07-09T01:57:27;18.57;;;8.93;;
3567;SDS011;1798;48.486;9.232;2023-07-09T01:59:58;17.90;;;9.57;;
3567;SDS011;1798;48.486;9.232;2023-07-09T02:02:26;21.13;;;9.57;;
3567;SDS011;1798;48.486;9.232;2023-07-09T02:04:53;25.67;;;8.80;;
3567;SDS011;1798;48.486;9.232;2023-07-09T02:07:22;19.03;;;9.30;;
3567;SDS011;1798;48.486;9.232;2023-07-09T02:09:50;24.40;;;9.07;;
3567;SDS011;1798;48.486;9.232;2023-07-09T02:12:17;15.70;;;8.53;;
3567;SDS011;1798;48.486;9.232;2023-07-09T02:14:46;16.27;;;8.40;;
3567;SDS011;1798;48.486;9.232;2023-07-09T02:17:14;18.73;;;9.63;;
3567;SDS011;1798;48.486;9.232;2023-07-09T02:19:41;16.80;;;8.50;;
3567;SDS011;1798;48.486;9.232;2023-07-09T02:22:08;19.27;;;8.20;;
3567;SDS011;1798;48.486;9.232;2023-07-09T02:24:35;20.77;;;8.50;;
3567;SDS011;1798;48.486;9.232;2023-07-09T02:27:03;21.40;;;9.70;;
3567;SDS011;1798;48.486;9.232;2023-07-09T02:29:32;28.30;;;8.27;;
3567;SDS011;1798;48.486;9.232;2023-07-09T02:32:01;23.27;;;8.97;;
3567;SDS011;1798;48.486;9.232;2023-07-09T02:34:28;18.30;;;7.97;;
3567;SDS011;1798;48.486;9.232;2023-07-09T02:41:49;20.00;;;9.80;;
3567;SDS011;1798;48.486;9.232;2023-07-09T02:44:16;20.33;;;10.57;;
3567;SDS011;1798;48.486;9.232;2023-07-09T02:46:43;23.03;;;11.20;;
3567;SDS011;1798;48.486;9.232;2023-07-09T02:49:12;20.80;;;9.23;;
3567;SDS011;1798;48.486;9.232;2023-07-09T02:51:39;20.70;;;9.90;;
3567;SDS011;1798;48.486;9.232;2023-07-09T02:54:06;21.80;;;9.83;;
3567;SDS011;1798;48.486;9.232;2023-07-09T02:56:33;19.10;;;8.37;;
3567;SDS011;1798;48.486;9.232;2023-07-09T02:59:00;16.97;;;8.30;;
3567;SDS011;1798;48.486;9.232;2023-07-09T03:01:27;17.90;;;8.00;;
3567;SDS011;1798;48.486;9.232;2023-07-09T03:03:54;22.90;;;7.40;;
3567;SDS011;1798;48.486;9.232;2023-07-09T03:06:22;17.03;;;8.10;;
3567;SDS011;1798;48.486;9.232;2023-07-09T03:08:50;18.00;;;7.93;;
3567;SDS011;1798;48.486;9.232;2023-07-09T03:11:17;16.87;;;7.73;;
3567;SDS011;1798;48.486;9.232;2023-07-09T03:13:44;22.33;;;8.80;;
3567;SDS011;1798;48.486;9.232;2023-07-09T03:16:11;17.77;;;8.90;;
3567;SDS011;1798;48.486;9.232;2023-07-09T03:18:38;23.13;;;10.00;;
3567;SDS011;1798;48.486;9.232;2023-07-09T03:21:05;18.63;;;9.40;;
3567;SDS011;1798;48.486;9.232;2023-07-09T03:23:33;34.43;;;10.50;;
3567;SDS011;1798;48.486;9.232;2023-07-09T03:26:00;28.40;;;10.77;;
3567;SDS011;1798;48.486;9.232;2023-07-09T03:28:27;15.60;;;8.63;;
3567;SDS011;1798;48.486;9.232;2023-07-09T03:30:55;23.50;;;10.70;;
3567;SDS011;1798;48.486;9.232;2023-07-09T03:33:22;22.33;;;11.90;;
3567;SDS011;1798;48.486;9.232;2023-07-09T03:35:49;23.03;;;11.60;;
3567;SDS011;1798;48.486;9.232;2023-07-09T03:38:15;29.50;;;11.63;;
3567;SDS011;1798;48.486;9.232;2023-07-09T03:40:44;28.23;;;11.13;;
3567;SDS011;1798;48.486;9.232;2023-07-09T03:43:11;27.60;;;12.63;;
3567;SDS011;1798;48.486;9.232;2023-07-09T03:45:37;23.17;;;10.30;;
3567;SDS011;1798;48.486;9.232;2023-07-09T03:48:05;18.67;;;10.43;;
3567;SDS011;1798;48.486;9.232;2023-07-09T03:50:32;43.90;;;9.33;;
3567;SDS011;1798;48.486;9.232;2023-07-09T03:52:59;16.60;;;9.20;;
3567;SDS011;1798;48.486;9.232;2023-07-09T03:55:26;16.63;;;8.60;;
3567;SDS011;1798;48.486;9.232;2023-07-09T03:57:54;23.67;;;10.87;;
3567;SDS011;1798;48.486;9.232;2023-07-09T04:00:21;24.07;;;9.63;;
3567;SDS011;1798;48.486;9.232;2023-07-09T04:02:49;24.30;;;9.97;;
3567;SDS011;1798;48.486;9.232;2023-07-09T04:05:17;19.87;;;10.30;;
3567;SDS011;1798;48.486;9.232;2023-07-09T04:07:44;19.00;;;8.67;;
3567;SDS011;1798;48.486;9.232;2023-07-09T04:10:11;18.47;;;9.00;;
3567;SDS011;1798;48.486;9.232;2023-07-09T04:12:38;15.47;;;9.10;;
3567;SDS011;1798;48.486;9.232;2023-07-09T04:15:06;16.90;;;10.53;;
3567;SDS011;1798;48.486;9.232;2023-07-09T04:17:34;27.93;;;12.73;;
3567;SDS011;1798;48.486;9.232;2023-07-09T04:20:01;21.70;;;12.80;;
3567;SDS011;1798;48.486;9.232;2023-07-09T04:22:30;26.30;;;12.70;;
3567;SDS011;1798;48.486;9.232;2023-07-09T04:24:57;18.00;;;11.30;;
3567;SDS011;1798;48.486;9.232;2023-07-09T04:27:24;19.37;;;10.40;;
3567;SDS011;1798;48.486;9.232;2023-07-09T04:29:52;31.93;;;10.50;;
3567;SDS011;1798;48.486;9.232;2023-07-09T04:32:21;26.57;;;11.20;;
3567;SDS011;1798;48.486;9.232;2023-07-09T04:34:47;19.87;;;11.07;;
3567;SDS011;1798;48.486;9.232;2023-07-09T04:37:14;23.13;;;10.70;;
3567;SDS011;1798;48.486;9.232;2023-07-09T04:39:42;17.23;;;9.80;;
3567;SDS011;1798;48.486;9.232;2023-07-09T04:42:09;25.63;;;9.73;;
3567;SDS011;1798;48.486;9.232;2023-07-09T04:44:37;19.13;;;9.30;;
3567;SDS011;1798;48.486;9.232;2023-07-09T04:47:05;18.40;;;9.23;;
3567;SDS011;1798;48.486;9.232;2023-07-09T04:49:34;15.77;;;8.93;;
3567;SDS011;1798;48.486;9.232;2023-07-09T04:52:01;17.53;;;9.43;;
3567;SDS011;1798;48.486;9.232;2023-07-09T04:54:27;18.33;;;9.20;;
3567;SDS011;1798;48.486;9.232;2023-07-09T04:56:54;20.30;;;8.97;;
3567;SDS011;1798;48.486;9.232;2023-07-09T04:59:21;24.27;;;9.30;;
3567;SDS011;1798;48.486;9.232;2023-07-09T05:01:48;21.63;;;10.70;;
3567;SDS011;1798;48.486;9.232;2023-07-09T05:04:15;17.33;;;8.37;;
3567;SDS011;1798;48.486;9.232;2023-07-09T05:06:44;19.30;;;8.40;;
3567;SDS011;1798;48.486;9.232;2023-07-09T05:09:10;22.33;;;8.43;;
3567;SDS011;1798;48.486;9.232;2023-07-09T05:11:37;15.70;;;8.07;;
3567;SDS011;1798;48.486;9.232;2023-07-09T05:14:04;14.80;;;7.93;;
3567;SDS011;1798;48.486;9.232;2023-07-09T05:16:31;17.00;;;9.50;;
3567;SDS011;1798;48.486;9.232;2023-07-09T05:18:58;15.00;;;7.23;;
3567;SDS011;1798;48.486;9.232;2023-07-09T05:21:25;14.33;;;7.07;;
3567;SDS011;1798;48.486;9.232;2023-07-09T05:23:53;15.57;;;6.93;;
3567;SDS011;1798;48.486;9.232;2023-07-09T05:26:20;24.23;;;8.07;;
3567;SDS011;1798;48.486;9.232;2023-07-09T05:28:47;20.83;;;9.53;;
3567;SDS011;1798;48.486;9.232;2023-07-09T05:31:13;16.90;;;7.77;;
3567;SDS011;1798;48.486;9.232;2023-07-09T05:33:40;15.10;;;8.10;;
3567;SDS011;1798;48.486;9.232;2023-07-09T05:36:08;13.27;;;7.87;;
3567;SDS011;1798;48.486;9.232;2023-07-09T05:38:38;22.07;;;8.63;;
3567;SDS011;1798;48.486;9.232;2023-07-09T05:41:07;18.40;;;8.63;;
3567;SDS011;1798;48.486;9.232;2023-07-09T05:43:33;13.20;;;7.90;;
3567;SDS011;1798;48.486;9.232;2023-07-09T05:46:00;26.43;;;9.23;;
3567;SDS011;1798;48.486;9.232;2023-07-09T05:48:27;21.10;;;6.80;;
3567;SDS011;1798;48.486;9.232;2023-07-09T05:50:54;16.50;;;7.93;;
3567;SDS011;1798;48.486;9.232;2023-07-09T05:53:21;22.63;;;7.30;;
3567;SDS011;1798;48.486;9.232;2023-07-09T05:55:48;14.27;;;7.80;;
3567;SDS011;1798;48.486;9.232;2023-07-09T05:58:16;16.83;;;7.73;;
3567;SDS011;1798;48.486;9.232;2023-07-09T06:00:43;14.27;;;7.23;;
3567;SDS011;1798;48.486;9.232;2023-07-09T06:03:10;14.40;;;7.77;;
3567;SDS011;1798;48.486;9.232;2023-07-09T06:05:36;14.97;;;7.07;;
3567;SDS011;1798;48.486;9.232;2023-07-09T06:08:03;17.70;;;8.20;;
3567;SDS011;1798;48.486;9.232;2023-07-09T06:10:30;12.60;;;7.93;;
3567;SDS011;1798;48.486;9.232;2023-07-09T06:12:57;15.17;;;8.17;;
3567;SDS011;1798;48.486;9.232;2023-07-09T06:15:25;14.77;;;8.10;;
3567;SDS011;1798;48.486;9.232;2023-07-09T06:17:52;16.20;;;8.27;;
3567;SDS011;1798;48.486;9.232;2023-07-09T06:20:19;14.73;;;7.37;;
3567;SDS011;1798;48.486;9.232;2023-07-09T06:22:45;21.20;;;9.10;;
3567;SDS011;1798;48.486;9.232;2023-07-09T06:25:12;13.20;;;7.47;;
3567;SDS011;1798;48.486;9.232;2023-07-09T06:27:39;15.87;;;8.60;;
3567;SDS011;1798;48.486;9.232;2023-07-09T06:30:06;10.40;;;6.60;;
3567;SDS011;1798;48.486;9.232;2023-07-09T06:32:35;19.33;;;8.50;;
3567;SDS011;1798;48.486;9.232;2023-07-09T06:35:02;25.93;;;8.00;;
3567;SDS011;1798;48.486;9.232;2023-07-09T06:37:30;16.23;;;7.67;;
3567;SDS011;1798;48.486;9.232;2023-07-09T06:39:56;16.13;;;7.80;;
3567;SDS011;1798;48.486;9.232;2023-07-09T06:42:23;15.27;;;7.60;;
3567;SDS011;1798;48.486;9.232;2023-07-09T06:44:50;20.67;;;7.87;;
3567;SDS011;1798;48.486;9.232;2023-07-09T06:47:17;19.70;;;8.10;;
3567;SDS011;1798;48.486;9.232;2023-07-09T06:49:45;20.70;;;8.00;;
3567;SDS011;1798;48.486;9.232;2023-07-09T06:52:12;13.87;;;7.20;;
3567;SDS011;1798;48.486;9.232;2023-07-09T06:54:38;15.93;;;7.67;;
3567;SDS011;1798;48.486;9.232;2023-07-09T06:57:05;12.77;;;7.10;;
3567;SDS011;1798;48.486;9.232;2023-07-09T06:59:32;16.83;;;8.53;;
3567;SDS011;1798;48.486;9.232;2023-07-09T07:01:59;13.80;;;7.70;;
3567;SDS011;1798;48.486;9.232;2023-07-09T07:04:25;15.87;;;7.97;;
3567;SDS011;1798;48.486;9.232;2023-07-09T07:06:54;14.50;;;7.80;;
3567;SDS011;1798;48.486;9.232;2023-07-09T07:09:21;17.33;;;8.43;;
3567;SDS011;1798;48.486;9.232;2023-07-09T07:11:48;17.40;;;7.57;;
3567;SDS011;1798;48.486;9.232;2023-07-09T07:14:15;14.13;;;7.00;;
3567;SDS011;1798;48.486;9.232;2023-07-09T07:16:42;16.90;;;7.40;;
3567;SDS011;1798;48.486;9.232;2023-07-09T07:19:09;15.43;;;7.37;;
3567;SDS011;1798;48.486;9.232;2023-07-09T07:21:36;15.43;;;7.93;;
3567;SDS011;1798;48.486;9.232;2023-07-09T07:24:04;19.20;;;6.83;;
3567;SDS011;1798;48.486;9.232;2023-07-09T07:26:32;13.77;;;7.63;;
3567;SDS011;1798;48.486;9.232;2023-07-09T07:28:59;11.50;;;6.70;;
3567;SDS011;1798;48.486;9.232;2023-07-09T07:31:25;21.93;;;7.80;;
3567;SDS011;1798;48.486;9.232;2023-07-09T07:33:53;17.50;;;7.50;;
3567;SDS011;1798;48.486;9.232;2023-07-09T07:36:19;12.00;;;7.40;;
3567;SDS011;1798;48.486;9.232;2023-07-09T07:38:46;18.73;;;8.20;;
3567;SDS011;1798;48.486;9.232;2023-07-09T07:41:14;12.77;;;7.40;;
3567;SDS011;1798;48.486;9.232;2023-07-09T07:43:41;16.20;;;7.93;;
3567;SDS011;1798;48.486;9.232;2023-07-09T07:46:07;13.40;;;6.47;;
3567;SDS011;1798;48.486;9.232;2023-07-09T07:48:34;12.37;;;6.80;;
3567;SDS011;1798;48.486;9.232;2023-07-09T07:51:02;15.30;;;7.57;;
3567;SDS011;1798;48.486;9.232;2023-07-09T07:53:30;15.10;;;7.17;;
3567;SDS011;1798;48.486;9.232;2023-07-09T07:55:57;13.60;;;6.87;;
3567;SDS011;1798;48.486;9.232;2023-07-09T07:58:25;13.23;;;7.50;;
3567;SDS011;1798;48.486;9.232;2023-07-09T08:00:54;12.47;;;6.80;;
3567;SDS011;1798;48.486;9.232;2023-07-09T08:03:21;14.90;;;7.67;;
3567;SDS011;1798;48.486;9.232;2023-07-09T08:05:48;15.10;;;7.70;;
3567;SDS011;1798;48.486;9.232;2023-07-09T08:08:15;18.67;;;7.93;;
3567;SDS011;1798;48.486;9.232;2023-07-09T08:10:42;14.20;;;7.50;;
3567;SDS011;1798;48.486;9.232;2023-07-09T08:13:09;13.03;;;7.20;;
3567;SDS011;1798;48.486;9.232;2023-07-09T08:15:37;13.60;;;7.27;;
3567;SDS011;1798;48.486;9.232;2023-07-09T08:18:03;14.97;;;7.20;;
3567;SDS011;1798;48.486;9.232;2023-07-09T08:20:30;13.27;;;8.20;;
3567;SDS011;1798;48.486;9.232;2023-07-09T08:22:58;15.47;;;7.00;;
3567;SDS011;1798;48.486;9.232;2023-07-09T08:25:25;22.13;;;7.50;;
3567;SDS011;1798;48.486;9.232;2023-07-09T08:27:51;13.60;;;7.10;;
3567;SDS011;1798;48.486;9.232;2023-07-09T08:30:18;16.43;;;9.40;;
3567;SDS011;1798;48.486;9.232;2023-07-09T08:32:46;13.07;;;8.10;;
3567;SDS011;1798;48.486;9.232;2023-07-09T08:35:13;20.20;;;8.53;;
3567;SDS011;1798;48.486;9.232;2023-07-09T08:37:41;14.37;;;7.60;;
3567;SDS011;1798;48.486;9.232;2023-07-09T08:40:10;39.33;;;9.23;;
3567;SDS011;1798;48.486;9.232;2023-07-09T08:42:39;13.60;;;7.90;;
3567;SDS011;1798;48.486;9.232;2023-07-09T08:45:12;14.00;;;6.73;;
3567;SDS011;1798;48.486;9.232;2023-07-09T08:47:47;15.10;;;7.73;;
3567;SDS011;1798;48.486;9.232;2023-07-09T08:50:19;20.37;;;8.20;;
3567;SDS011;1798;48.486;9.232;2023-07-09T08:52:47;23.30;;;7.93;;
3567;SDS011;1798;48.486;9.232;2023-07-09T08:55:16;18.73;;;8.70;;
3567;SDS011;1798;48.486;9.232;2023-07-09T08:57:44;19.93;;;8.80;;
3567;SDS011;1798;48.486;9.232;2023-07-09T09:00:14;25.27;;;10.47;;
3567;SDS011;1798;48.486;9.232;2023-07-09T09:02:45;13.90;;;7.37;;
3567;SDS011;1798;48.486;9.232;2023-07-09T09:05:16;19.27;;;8.00;;
3567;SDS011;1798;48.486;9.232;2023-07-09T09:07:47;17.50;;;8.93;;
3567;SDS011;1798;48.486;9.232;2023-07-09T09:10:19;21.03;;;8.30;;
3567;SDS011;1798;48.486;9.232;2023-07-09T09:12:56;14.53;;;8.00;;
3567;SDS011;1798;48.486;9.232;2023-07-09T09:15:29;19.83;;;8.53;;
3567;SDS011;1798;48.486;9.232;2023-07-09T09:18:13;16.87;;;7.70;;
3567;SDS011;1798;48.486;9.232;2023-07-09T09:20:45;28.27;;;9.47;;
3567;SDS011;1798;48.486;9.232;2023-07-09T09:23:15;15.63;;;7.73;;
3567;SDS011;1798;48.486;9.232;2023-07-09T09:25:43;13.37;;;7.03;;
3567;SDS011;1798;48.486;9.232;2023-07-09T09:28:13;18.67;;;8.33;;
3567;SDS011;1798;48.486;9.232;2023-07-09T09:30:39;17.03;;;8.03;;
3567;SDS011;1798;48.486;9.232;2023-07-09T09:33:08;18.93;;;7.83;;
3567;SDS011;1798;48.486;9.232;2023-07-09T09:35:37;14.90;;;8.10;;
3567;SDS011;1798;48.486;9.232;2023-07-09T09:38:09;19.17;;;7.50;;
3567;SDS011;1798;48.486;9.232;2023-07-09T09:40:37;13.50;;;7.40;;
3567;SDS011;1798;48.486;9.232;2023-07-09T09:43:09;16.20;;;7.87;;
3567;SDS011;1798;48.486;9.232;2023-07-09T09:45:39;24.40;;;7.43;;
3567;SDS011;1798;48.486;9.232;2023-07-09T09:48:13;19.10;;;8.50;;
3567;SDS011;1798;48.486;9.232;2023-07-09T09:50:41;17.90;;;7.77;;
3567;SDS011;1798;48.486;9.232;2023-07-09T09:53:08;18.80;;;8.13;;
3567;SDS011;1798;48.486;9.232;2023-07-09T09:55:37;17.53;;;7.70;;
3567;SDS011;1798;48.486;9.232;2023-07-09T09:58:10;22.00;;;7.57;;
3567;SDS011;1798;48.486;9.232;2023-07-09T10:00:38;13.17;;;7.60;;
3567;SDS011;1798;48.486;9.232;2023-07-09T10:03:05;14.13;;;7.87;;
3567;SDS011;1798;48.486;9.232;2023-07-09T10:05:34;15.67;;;8.33;;
3567;SDS011;1798;48.486;9.232;2023-07-09T10:08:06;16.90;;;7.83;;
3567;SDS011;1798;48.486;9.232;2023-07-09T10:10:35;11.70;;;7.57;;
3567;SDS011;1798;48.486;9.232;2023-07-09T10:13:05;14.70;;;7.57;;
3567;SDS011;1798;48.486;9.232;2023-07-09T10:15:39;12.13;;;7.33;;
3567;SDS011;1798;48.486;9.232;2023-07-09T10:21:00;16.50;;;8.40;;
3567;SDS011;1798;48.486;9.232;2023-07-09T10:23:32;18.00;;;6.83;;
3567;SDS011;1798;48.486;9.232;2023-07-09T10:26:03;16.00;;;7.30;;
3567;SDS011;1798;48.486;9.232;2023-07-09T10:28:41;17.03;;;7.40;;
3567;SDS011;1798;48.486;9.232;2023-07-09T10:31:15;20.03;;;9.07;;
3567;SDS011;1798;48.486;9.232;2023-07-09T10:33:51;17.70;;;7.20;;
3567;SDS011;1798;48.486;9.232;2023-07-09T10:36:28;16.07;;;7.13;;
3567;SDS011;1798;48.486;9.232;2023-07-09T10:39:00;15.50;;;7.70;;
3567;SDS011;1798;48.486;9.232;2023-07-09T10:41:30;11.57;;;6.93;;
3567;SDS011;1798;48.486;9.232;2023-07-09T10:43:59;13.80;;;7.60;;
3567;SDS011;1798;48.486;9.232;2023-07-09T10:46:31;20.23;;;7.87;;
3567;SDS011;1798;48.486;9.232;2023-07-09T10:48:59;22.20;;;8.07;;
3567;SDS011;1798;48.486;9.232;2023-07-09T10:51:30;14.57;;;7.77;;
3567;SDS011;1798;48.486;9.232;2023-07-09T10:54:00;16.83;;;7.80;;
3567;SDS011;1798;48.486;9.232;2023-07-09T10:56:30;18.47;;;8.37;;
3567;SDS011;1798;48.486;9.232;2023-07-09T10:59:02;16.13;;;6.87;;
3567;SDS011;1798;48.486;9.232;2023-07-09T11:01:32;15.67;;;7.60;;
3567;SDS011;1798;48.486;9.232;2023-07-09T11:04:03;16.10;;;7.80;;
3567;SDS011;1798;48.486;9.232;2023-07-09T11:06:34;15.00;;;7.33;;
3567;SDS011;1798;48.486;9.232;2023-07-09T11:09:04;16.13;;;8.37;;
3567;SDS011;1798;48.486;9.232;2023-07-09T11:11:37;14.33;;;7.67;;
3567;SDS011;1798;48.486;9.232;2023-07-09T11:14:08;13.20;;;7.00;;
3567;SDS011;1798;48.486;9.232;2023-07-09T11:16:41;16.40;;;7.90;;
3567;SDS011;1798;48.486;9.232;2023-07-09T11:19:10;15.10;;;7.50;;
3567;SDS011;1798;48.486;9.232;2023-07-09T11:21:55;17.23;;;8.18;;
3567;SDS011;1798;48.486;9.232;2023-07-09T11:24:30;11.27;;;6.63;;
3567;SDS011;1798;48.486;9.232;2023-07-09T11:26:59;15.50;;;7.47;;
3567;SDS011;1798;48.486;9.232;2023-07-09T11:29:26;22.00;;;8.00;;
3567;SDS011;1798;48.486;9.232;2023-07-09T11:31:54;17.57;;;7.70;;
3567;SDS011;1798;48.486;9.232;2023-07-09T11:34:26;17.43;;;7.80;;
3567;SDS011;1798;48.486;9.232;2023-07-09T11:36:57;19.27;;;6.80;;
3567;SDS011;1798;48.486;9.232;2023-07-09T11:39:27;14.63;;;6.73;;
3567;SDS011;1798;48.486;9.232;2023-07-09T11:41:55;14.93;;;7.47;;
3567;SDS011;1798;48.486;9.232;2023-07-09T11:44:23;16.93;;;8.00;;
3567;SDS011;1798;48.486;9.232;2023-07-09T11:49:45;23.20;;;8.00;;
3567;SDS011;1798;48.486;9.232;2023-07-09T11:52:17;18.10;;;7.40;;
3567;SDS011;1798;48.486;9.232;2023-07-09T11:54:46;18.20;;;7.17;;
3567;SDS011;1798;48.486;9.232;2023-07-09T11:57:13;13.43;;;7.37;;
3567;SDS011;1798;48.486;9.232;2023-07-09T11:59:40;15.53;;;6.67;;
3567;SDS011;1798;48.486;9.232;2023-07-09T12:02:12;16.00;;;7.93;;
3567;SDS011;1798;48.486;9.232;2023-07-09T12:04:42;13.00;;;6.43;;
3567;SDS011;1798;48.486;9.232;2023-07-09T12:07:10;14.70;;;6.33;;
3567;SDS011;1798;48.486;9.232;2023-07-09T12:09:41;13.67;;;7.50;;
3567;SDS011;1798;48.486;9.232;2023-07-09T12:12:16;17.30;;;7.30;;
3567;SDS011;1798;48.486;9.232;2023-07-09T12:14:45;17.30;;;7.40;;
3567;SDS011;1798;48.486;9.232;2023-07-09T12:17:12;11.57;;;7.03;;
3567;SDS011;1798;48.486;9.232;2023-07-09T12:19:38;18.80;;;6.40;;
3567;SDS011;1798;48.486;9.232;2023-07-09T12:22:06;18.43;;;7.20;;
3567;SDS011;1798;48.486;9.232;2023-07-09T12:24:36;16.33;;;7.90;;
3567;SDS011;1798;48.486;9.232;2023-07-09T12:27:16;15.23;;;7.83;;
3567;SDS011;1798;48.486;9.232;2023-07-09T12:29:45;15.93;;;6.13;;
3567;SDS011;1798;48.486;9.232;2023-07-09T12:32:13;15.30;;;7.07;;
3567;SDS011;1798;48.486;9.232;2023-07-09T12:34:40;14.50;;;7.70;;
3567;SDS011;1798;48.486;9.232;2023-07-09T12:37:07;15.80;;;8.13;;
3567;SDS011;1798;48.486;9.232;2023-07-09T12:39:35;22.53;;;7.53;;
3567;SDS011;1798;48.486;9.232;2023-07-09T12:42:04;13.30;;;7.23;;
3567;SDS011;1798;48.486;9.232;2023-07-09T12:44:33;18.60;;;8.00;;
3567;SDS011;1798;48.486;9.232;2023-07-09T12:47:02;14.83;;;6.47;;
3567;SDS011;1798;48.486;9.232;2023-07-09T12:49:29;22.93;;;7.37;;
3567;SDS011;1798;48.486;9.232;2023-07-09T12:51:58;17.90;;;7.60;;
3567;SDS011;1798;48.486;9.232;2023-07-09T12:54:27;14.57;;;7.10;;
3567;SDS011;1798;48.486;9.232;2023-07-09T12:56:54;13.10;;;6.80;;
3567;SDS011;1798;48.486;9.232;2023-07-09T12:59:23;16.60;;;7.47;;
3567;SDS011;1798;48.486;9.232;2023-07-09T13:01:54;14.33;;;7.37;;
3567;SDS011;1798;48.486;9.232;2023-07-09T13:04:27;13.47;;;7.23;;
3567;SDS011;1798;48.486;9.232;2023-07-09T13:06:54;15.47;;;6.40;;
3567;SDS011;1798;48.486;9.232;2023-07-09T13:09:24;14.30;;;7.00;;
3567;SDS011;1798;48.486;9.232;2023-07-09T13:11:51;14.23;;;6.90;;
3567;SDS011;1798;48.486;9.232;2023-07-09T13:14:20;21.07;;;7.20;;
3567;SDS011;1798;48.486;9.232;2023-07-09T13:16:47;14.97;;;7.50;;
3567;SDS011;1798;48.486;9.232;2023-07-09T13:19:16;14.90;;;7.53;;
3567;SDS011;1798;48.486;9.232;2023-07-09T13:21:43;21.83;;;7.53;;
3567;SDS011;1798;48.486;9.232;2023-07-09T13:24:14;13.37;;;6.93;;
3567;SDS011;1798;48.486;9.232;2023-07-09T13:26:43;17.70;;;6.73;;
3567;SDS011;1798;48.486;9.232;2023-07-09T13:29:12;22.63;;;7.90;;
3567;SDS011;1798;48.486;9.232;2023-07-09T13:31:40;20.47;;;7.43;;
3567;SDS011;1798;48.486;9.232;2023-07-09T13:34:08;17.00;;;6.97;;
3567;SDS011;1798;48.486;9.232;2023-07-09T13:36:45;11.70;;;6.50;;
3567;SDS011;1798;48.486;9.232;2023-07-09T13:39:12;14.90;;;6.73;;
3567;SDS011;1798;48.486;9.232;2023-07-09T13:41:39;16.83;;;6.27;;
3567;SDS011;1798;48.486;9.232;2023-07-09T13:44:08;21.43;;;7.10;;
3567;SDS011;1798;48.486;9.232;2023-07-09T13:46:37;32.70;;;6.37;;
3567;SDS011;1798;48.486;9.232;2023-07-09T13:49:04;13.93;;;6.67;;
3567;SDS011;1798;48.486;9.232;2023-07-09T13:51:35;13.83;;;7.13;;
3567;SDS011;1798;48.486;9.232;2023-07-09T13:54:05;36.13;;;7.20;;
3567;SDS011;1798;48.486;9.232;2023-07-09T13:56:35;20.27;;;6.90;;
3567;SDS011;1798;48.486;9.232;2023-07-09T13:59:02;14.67;;;6.70;;
3567;SDS011;1798;48.486;9.232;2023-07-09T14:01:28;32.07;;;6.87;;
3567;SDS011;1798;48.486;9.232;2023-07-09T14:03:56;17.27;;;7.70;;
3567;SDS011;1798;48.486;9.232;2023-07-09T14:06:24;14.30;;;6.90;;
3567;SDS011;1798;48.486;9.232;2023-07-09T14:08:52;12.73;;;6.33;;
3567;SDS011;1798;48.486;9.232;2023-07-09T14:11:19;15.60;;;5.97;;
3567;SDS011;1798;48.486;9.232;2023-07-09T14:13:46;13.73;;;5.80;;
3567;SDS011;1798;48.486;9.232;2023-07-09T14:16:13;11.00;;;6.57;;
3567;SDS011;1798;48.486;9.232;2023-07-09T14:18:41;19.07;;;7.10;;
3567;SDS011;1798;48.486;9.232;2023-07-09T14:21:10;13.77;;;6.80;;
3567;SDS011;1798;48.486;9.232;2023-07-09T14:23:38;18.43;;;7.10;;
3567;SDS011;1798;48.486;9.232;2023-07-09T14:26:07;17.67;;;6.83;;
3567;SDS011;1798;48.486;9.232;2023-07-09T14:28:34;25.93;;;6.73;;
3567;SDS011;1798;48.486;9.232;2023-07-09T14:31:03;14.57;;;6.33;;
3567;SDS011;1798;48.486;9.232;2023-07-09T14:33:31;16.30;;;7.33;;
3567;SDS011;1798;48.486;9.232;2023-07-09T14:36:00;14.57;;;7.07;;
3567;SDS011;1798;48.486;9.232;2023-07-09T14:38:26;16.67;;;6.43;;
3567;SDS011;1798;48.486;9.232;2023-07-09T14:40:54;12.77;;;7.10;;
3567;SDS011;1798;48.486;9.232;2023-07-09T14:43:23;12.23;;;5.80;;
3567;SDS011;1798;48.486;9.232;2023-07-09T14:45:50;12.40;;;6.50;;
3567;SDS011;1798;48.486;9.232;2023-07-09T14:48:17;13.80;;;7.30;;
3567;SDS011;1798;48.486;9.232;2023-07-09T14:50:45;16.63;;;6.70;;
3567;SDS011;1798;48.486;9.232;2023-07-09T14:53:13;35.33;;;6.90;;
3567;SDS011;1798;48.486;9.232;2023-07-09T14:55:42;14.80;;;5.67;;
3567;SDS011;1798;48.486;9.232;2023-07-09T14:58:18;15.70;;;7.20;;
3567;SDS011;1798;48.486;9.232;2023-07-09T15:00:47;17.07;;;6.80;;
3567;SDS011;1798;48.486;9.232;2023-07-09T15:03:17;17.90;;;6.50;;
3567;SDS011;1798;48.486;9.232;2023-07-09T15:05:46;17.63;;;7.10;;
3567;SDS011;1798;48.486;9.232;2023-07-09T15:08:12;15.10;;;7.30;;
3567;SDS011;1798;48.486;9.232;2023-07-09T15:10:40;12.67;;;6.17;;
3567;SDS011;1798;48.486;9.232;2023-07-09T15:13:10;10.80;;;6.30;;
3567;SDS011;1798;48.486;9.232;2023-07-09T15:15:42;13.87;;;7.10;;
3567;SDS011;1798;48.486;9.232;2023-07-09T15:18:11;23.53;;;7.67;;